Time,TemperatureF,DewpointF,PressureIn,WindDirection,WindDirectionDegrees,WindSpeedMPH,WindSpeedGustMPH,Humidity,HourlyPrecipIn,Conditions,Clouds,dailyrainin,SoftwareType,DateUTC
2017-06-26 00:02:00,74.3,74.3,30.09,ESE,115,5.9,5.9,100,0.00,,,0.00,TxWx,2017-06-26 04:02:00,
2017-06-26 00:07:00,74.4,74.4,30.09,ESE,109,4.4,5.0,100,0.00,,,0.00,TxWx,2017-06-26 04:07:00,
2017-06-26 00:12:00,74.4,74.4,30.09,ENE,76,4.8,4.8,100,0.00,,,0.00,TxWx,2017-06-26 04:12:00,
2017-06-26 00:17:00,74.6,74.6,30.09,ESE,118,7.9,8.0,100,0.00,,,0.00,TxWx,2017-06-26 04:17:00,
2017-06-26 00:22:00,74.7,74.7,30.09,ESE,114,6.6,7.0,100,0.00,,,0.00,TxWx,2017-06-26 04:22:00,
2017-06-26 00:27:00,74.7,74.7,30.09,East,90,5.5,6.0,100,0.00,,,0.00,TxWx,2017-06-26 04:27:00,
2017-06-26 00:32:00,74.8,74.8,30.09,ENE,61,1.2,1.2,100,0.00,,,0.00,TxWx,2017-06-26 04:32:00,
2017-06-26 00:37:00,74.8,74.8,30.09,East,93,1.2,1.2,100,0.00,,,0.00,TxWx,2017-06-26 04:37:00,
2017-06-26 00:42:00,74.8,74.8,30.09,SE,131,3.5,3.5,100,0.00,,,0.00,TxWx,2017-06-26 04:42:00,
2017-06-26 00:43:00,74.8,74.8,30.09,SE,141,2.4,2.4,100,0.00,,,0.00,TxWx,2017-06-26 04:43:00,
2017-06-26 00:48:00,74.8,74.8,30.09,ESE,109,3.9,3.9,100,0.00,,,0.00,TxWx,2017-06-26 04:48:00,
2017-06-26 00:53:00,74.7,74.7,30.08,East,84,4.2,4.2,100,0.00,,,0.00,TxWx,2017-06-26 04:53:00,
2017-06-26 00:58:00,74.5,74.5,30.08,ESE,114,4.6,4.6,100,0.00,,,0.00,TxWx,2017-06-26 04:58:00,
2017-06-26 01:03:00,74.5,74.5,30.08,ESE,109,4.6,5.0,100,0.00,,,0.00,TxWx,2017-06-26 05:03:00,
2017-06-26 01:08:00,74.4,74.4,30.08,ESE,120,4.4,4.4,100,0.00,,,0.00,TxWx,2017-06-26 05:08:00,
2017-06-26 01:13:00,74.4,74.4,30.08,SSE,160,4.2,4.2,100,0.00,,,0.00,TxWx,2017-06-26 05:13:00,
2017-06-26 01:18:00,74.4,74.4,30.08,South,188,1.7,1.7,100,0.00,,,0.00,TxWx,2017-06-26 05:18:00,
2017-06-26 01:23:00,74.3,74.3,30.08,South,179,0.0,0.0,100,0.00,,,0.00,TxWx,2017-06-26 05:23:00,
2017-06-26 01:28:00,74.3,74.3,30.08,SSW,193,0.0,0.0,100,0.00,,,0.00,TxWx,2017-06-26 05:28:00,
2017-06-26 01:33:00,74.1,74.1,30.08,SW,225,0.0,0.0,100,0.00,,,0.00,TxWx,2017-06-26 05:33:00,
2017-06-26 01:34:00,74.1,74.1,30.08,WSW,243,1.1,1.1,100,0.00,,,0.00,TxWx,2017-06-26 05:34:00,
2017-06-26 01:39:00,74.0,74.0,30.08,SSW,210,0.0,0.0,100,0.00,,,0.00,TxWx,2017-06-26 05:39:00,
2017-06-26 01:44:00,74.0,74.0,30.08,East,90,0.0,0.0,100,0.00,,,0.00,TxWx,2017-06-26 05:44:00,
2017-06-26 01:49:00,73.9,73.9,30.07,East,84,0.0,0.0,100,0.00,,,0.00,TxWx,2017-06-26 05:49:00,
2017-06-26 01:54:00,73.9,73.9,30.07,ESE,110,0.0,0.0,100,0.00,,,0.00,TxWx,2017-06-26 05:54:00,
2017-06-26 01:59:00,73.8,73.8,30.08,West,275,3.2,3.2,100,0.00,,,0.00,TxWx,2017-06-26 05:59:00,
2017-06-26 02:04:00,73.2,73.2,30.08,West,272,9.4,9.4,100,0.00,,,0.00,TxWx,2017-06-26 06:04:00,
2017-06-26 02:09:00,73.1,73.1,30.08,West,275,8.5,8.5,100,0.00,,,0.00,TxWx,2017-06-26 06:09:00,
2017-06-26 02:14:00,73.2,73.2,30.08,WNW,294,5.0,5.0,100,0.00,,,0.00,TxWx,2017-06-26 06:14:00,
2017-06-26 02:19:00,73.1,73.1,30.08,West,271,5.5,5.5,100,0.00,,,0.00,TxWx,2017-06-26 06:19:00,
2017-06-26 02:24:00,72.9,72.9,30.08,West,266,5.7,5.7,100,0.00,,,0.00,TxWx,2017-06-26 06:24:00,
2017-06-26 02:29:00,72.9,72.9,30.08,West,271,1.1,1.1,100,0.00,,,0.00,TxWx,2017-06-26 06:29:00,
2017-06-26 02:34:00,72.7,72.7,30.08,NNE,16,2.2,2.2,100,0.00,,,0.00,TxWx,2017-06-26 06:34:00,
2017-06-26 02:39:00,72.7,72.7,30.08,ENE,59,0.0,0.0,100,0.00,,,0.00,TxWx,2017-06-26 06:39:00,
2017-06-26 02:44:00,72.8,72.8,30.08,ENE,59,0.0,0.0,100,0.00,,,0.00,TxWx,2017-06-26 06:44:00,
2017-06-26 02:49:00,72.6,72.6,30.08,WSW,252,0.0,0.0,100,0.00,,,0.00,TxWx,2017-06-26 06:49:00,
2017-06-26 02:52:00,72.5,72.5,30.08,WSW,238,0.0,0.0,100,0.00,,,0.00,TxWx,2017-06-26 06:52:00,
2017-06-26 02:57:00,72.6,72.6,30.08,SSW,193,2.0,2.0,100,0.00,,,0.00,TxWx,2017-06-26 06:57:00,
2017-06-26 03:02:00,72.6,72.6,30.08,SE,142,1.5,1.5,100,0.00,,,0.00,TxWx,2017-06-26 07:02:00,
2017-06-26 03:07:00,72.5,72.5,30.08,ESE,111,0.0,0.0,100,0.00,,,0.00,TxWx,2017-06-26 07:07:00,
2017-06-26 03:12:00,72.2,72.2,30.08,ENE,60,0.0,0.0,100,0.00,,,0.00,TxWx,2017-06-26 07:12:00,
2017-06-26 03:17:00,71.9,71.9,30.08,ENE,59,2.0,2.0,100,0.00,,,0.00,TxWx,2017-06-26 07:17:00,
2017-06-26 03:22:00,71.9,71.9,30.07,NNE,32,1.2,1.2,100,0.00,,,0.00,TxWx,2017-06-26 07:22:00,
2017-06-26 03:27:00,71.6,71.6,30.07,WNW,294,0.0,0.0,100,0.00,,,0.00,TxWx,2017-06-26 07:27:00,
2017-06-26 03:32:00,71.1,71.1,30.07,NW,318,3.5,3.5,100,0.00,,,0.00,TxWx,2017-06-26 07:32:00,
2017-06-26 03:37:00,71.2,71.2,30.07,NW,317,0.0,0.0,100,0.00,,,0.00,TxWx,2017-06-26 07:37:00,
2017-06-26 03:42:00,71.1,71.1,30.06,NW,322,0.0,0.0,100,0.00,,,0.00,TxWx,2017-06-26 07:42:00,
2017-06-26 03:47:00,71.5,71.5,30.06,SSE,160,0.0,0.0,100,0.00,,,0.00,TxWx,2017-06-26 07:47:00,
2017-06-26 03:52:00,71.4,71.4,30.06,East,94,2.7,3.0,100,0.00,,,0.00,TxWx,2017-06-26 07:52:00,
2017-06-26 03:57:00,71.4,71.4,30.06,ESE,102,1.5,0.0,100,0.00,,,0.00,TxWx,2017-06-26 07:57:00,
2017-06-26 04:02:00,71.1,71.1,30.06,East,93,0.0,0.0,100,0.00,,,0.00,TxWx,2017-06-26 08:02:00,
2017-06-26 04:07:00,70.8,70.8,30.06,East,86,0.0,0.0,100,0.00,,,0.00,TxWx,2017-06-26 08:07:00,
2017-06-26 04:12:00,70.7,70.7,30.06,East,88,0.0,0.0,100,0.00,,,0.00,TxWx,2017-06-26 08:12:00,
2017-06-26 04:17:00,70.6,70.6,30.06,East,88,0.0,0.0,100,0.00,,,0.00,TxWx,2017-06-26 08:17:00,
2017-06-26 04:22:00,70.8,70.8,30.06,East,92,0.0,0.0,100,0.00,,,0.00,TxWx,2017-06-26 08:22:00,
2017-06-26 04:27:00,70.8,70.8,30.06,East,90,3.5,3.5,100,0.00,,,0.00,TxWx,2017-06-26 08:27:00,
2017-06-26 04:32:00,71.0,71.0,30.06,East,88,3.7,4.0,100,0.00,,,0.00,TxWx,2017-06-26 08:32:00,
2017-06-26 04:37:00,70.8,70.8,30.06,East,82,3.7,3.7,100,0.00,,,0.00,TxWx,2017-06-26 08:37:00,
2017-06-26 04:42:00,70.6,70.6,30.05,East,84,3.2,3.2,100,0.00,,,0.00,TxWx,2017-06-26 08:42:00,
2017-06-26 04:47:00,70.5,70.5,30.05,ENE,64,2.2,2.2,100,0.00,,,0.00,TxWx,2017-06-26 08:47:00,
2017-06-26 04:52:00,70.3,70.3,30.05,East,84,2.4,2.4,100,0.00,,,0.00,TxWx,2017-06-26 08:52:00,
2017-06-26 04:57:00,70.6,70.6,30.05,ESE,104,4.2,4.2,100,0.00,,,0.00,TxWx,2017-06-26 08:57:00,
2017-06-26 05:02:00,71.4,71.4,30.05,East,89,6.1,6.1,100,0.00,,,0.00,TxWx,2017-06-26 09:02:00,
2017-06-26 05:07:00,71.7,71.7,30.05,East,82,3.5,3.5,100,0.00,,,0.00,TxWx,2017-06-26 09:07:00,
2017-06-26 05:12:00,71.7,71.7,30.05,East,99,4.6,4.6,100,0.00,,,0.00,TxWx,2017-06-26 09:12:00,
2017-06-26 05:18:00,72.0,72.0,30.05,ESE,109,3.5,3.5,100,0.00,,,0.00,TxWx,2017-06-26 09:18:00,
2017-06-26 05:23:00,72.0,72.0,30.05,ESE,120,1.2,1.2,100,0.00,,,0.00,TxWx,2017-06-26 09:23:00,
2017-06-26 05:28:00,72.0,72.0,30.05,SSW,193,2.2,0.0,100,0.00,,,0.00,TxWx,2017-06-26 09:28:00,
2017-06-26 05:32:00,71.8,71.8,30.05,SE,143,2.0,2.0,100,0.00,,,0.00,TxWx,2017-06-26 09:32:00,
2017-06-26 05:37:00,71.9,71.9,30.05,SSE,157,0.0,0.0,100,0.00,,,0.00,TxWx,2017-06-26 09:37:00,
2017-06-26 05:42:00,71.7,71.7,30.05,SSE,158,3.2,3.2,100,0.00,,,0.00,TxWx,2017-06-26 09:42:00,
2017-06-26 05:48:00,71.5,71.5,30.05,South,172,2.7,3.0,100,0.00,,,0.00,TxWx,2017-06-26 09:48:00,
2017-06-26 05:53:00,71.5,71.5,30.05,South,175,1.5,1.5,100,0.00,,,0.00,TxWx,2017-06-26 09:53:00,
2017-06-26 05:57:00,71.3,71.3,30.05,SSW,192,0.0,0.0,100,0.00,,,0.00,TxWx,2017-06-26 09:57:00,
2017-06-26 06:03:00,71.3,71.3,30.05,SSW,199,0.0,0.0,100,0.00,,,0.00,TxWx,2017-06-26 10:03:00,
2017-06-26 06:08:00,71.2,71.2,30.05,SSE,151,0.0,0.0,100,0.00,,,0.00,TxWx,2017-06-26 10:08:00,
2017-06-26 06:13:00,71.2,71.2,30.05,NNE,21,2.2,2.2,100,0.00,,,0.00,TxWx,2017-06-26 10:13:00,
2017-06-26 06:18:00,71.0,71.0,30.05,North,353,0.0,0.0,100,0.00,,,0.00,TxWx,2017-06-26 10:18:00,
2017-06-26 06:23:00,70.8,70.8,30.05,East,81,0.0,0.0,100,0.00,,,0.00,TxWx,2017-06-26 10:23:00,
2017-06-26 06:28:00,70.8,70.8,30.05,ESE,110,2.7,3.0,100,0.00,,,0.00,TxWx,2017-06-26 10:28:00,
2017-06-26 06:33:00,71.2,71.2,30.05,East,80,0.0,0.0,100,0.00,,,0.00,TxWx,2017-06-26 10:33:00,
2017-06-26 06:38:00,71.1,71.1,30.05,ESE,103,1.7,2.0,100,0.00,,,0.00,TxWx,2017-06-26 10:38:00,
2017-06-26 06:43:00,71.1,71.1,30.05,NE,51,0.0,0.0,100,0.00,,,0.00,TxWx,2017-06-26 10:43:00,
2017-06-26 06:48:00,71.3,71.3,30.06,NNW,336,1.5,1.5,100,0.00,,,0.00,TxWx,2017-06-26 10:48:00,